createdAt,value
2018-06-15T00:01:08.676Z,95.90
2018-06-15T00:03:37.724Z,95.60
2018-06-15T00:06:07.235Z,95.80
2018-06-15T00:08:36.316Z,95.80
2018-06-15T00:11:05.336Z,95.90
2018-06-15T00:13:34.352Z,95.90
2018-06-15T00:16:03.356Z,95.90
2018-06-15T00:18:33.384Z,96.40
2018-06-15T00:21:03.291Z,96.80
2018-06-15T00:23:32.280Z,96.70
2018-06-15T00:26:01.273Z,96.80
2018-06-15T00:28:30.356Z,97.00
2018-06-15T00:30:59.356Z,96.80
2018-06-15T00:33:28.384Z,96.90
2018-06-15T00:35:57.368Z,96.80
2018-06-15T00:38:26.360Z,96.90
2018-06-15T00:40:55.391Z,96.80
2018-06-15T00:43:24.428Z,97.10
2018-06-15T00:45:53.604Z,97.40
2018-06-15T00:48:22.622Z,97.50
2018-06-15T00:50:51.616Z,97.10
2018-06-15T00:53:20.656Z,97.00
2018-06-15T00:55:49.636Z,96.80
2018-06-15T00:58:18.657Z,96.80
2018-06-15T01:00:47.683Z,97.00
2018-06-15T01:03:16.888Z,97.00
2018-06-15T01:05:45.871Z,97.20
2018-06-15T01:08:14.892Z,97.50
2018-06-15T01:10:43.913Z,97.30
2018-06-15T01:13:12.929Z,97.00
2018-06-15T01:15:41.953Z,96.70
2018-06-15T01:18:10.936Z,96.80
2018-06-15T01:20:39.962Z,96.80
2018-06-15T01:23:09.000Z,96.50
2018-06-15T01:25:38.135Z,96.60
2018-06-15T01:28:07.307Z,96.50
2018-06-15T01:30:36.400Z,96.20
2018-06-15T01:33:05.402Z,96.10
2018-06-15T01:35:34.396Z,96.40
2018-06-15T01:38:03.412Z,96.70
2018-06-15T01:40:32.681Z,96.70
2018-06-15T01:43:01.676Z,96.70
2018-06-15T01:45:30.656Z,96.00
2018-06-15T01:47:59.680Z,95.80
2018-06-15T01:50:28.672Z,95.80
2018-06-15T01:52:57.693Z,96.00
2018-06-15T01:55:26.716Z,94.70
2018-06-15T01:57:55.727Z,93.30
2018-06-15T02:00:24.772Z,92.40
2018-06-15T02:02:53.810Z,92.80
2018-06-15T02:05:22.796Z,92.50
2018-06-15T02:07:52.038Z,92.40
2018-06-15T02:10:20.979Z,92.70
2018-06-15T02:12:49.961Z,92.10
2018-06-15T02:15:19.256Z,92.90
2018-06-15T02:17:48.256Z,93.70
2018-06-15T02:20:17.245Z,93.50
2018-06-15T02:25:14.917Z,93.10
2018-06-15T02:27:43.900Z,93.90
2018-06-15T02:30:12.962Z,93.70
2018-06-15T02:32:42.028Z,92.90
2018-06-15T02:35:11.085Z,93.40
2018-06-15T02:37:40.087Z,93.50
2018-06-15T02:40:09.185Z,93.60
2018-06-15T02:42:38.357Z,93.80
2018-06-15T02:45:07.480Z,94.10
2018-06-15T02:47:36.484Z,94.20
2018-06-15T02:50:05.516Z,93.30
2018-06-15T02:52:34.561Z,92.70
2018-06-15T02:55:03.626Z,92.80
2018-06-15T02:57:32.636Z,92.70
2018-06-15T03:00:01.649Z,92.90
2018-06-15T03:02:30.922Z,92.90
2018-06-15T03:04:59.944Z,93.20
2018-06-15T03:07:28.954Z,92.70
2018-06-15T03:09:58.021Z,91.70
2018-06-15T03:12:27.417Z,91.30
2018-06-15T03:14:56.653Z,91.40
2018-06-15T03:17:25.706Z,91.30
2018-06-15T03:19:55.382Z,91.30
2018-06-15T03:22:24.367Z,90.50
2018-06-15T03:24:53.372Z,90.90
2018-06-15T03:27:22.509Z,91.50
2018-06-15T03:29:51.794Z,91.80
2018-06-15T03:32:20.772Z,91.30
2018-06-15T03:34:49.808Z,91.20
2018-06-15T03:37:18.836Z,91.10
2018-06-15T03:39:48.110Z,91.40
2018-06-15T03:42:17.109Z,91.40
2018-06-15T03:47:14.873Z,90.80
2018-06-15T03:49:43.869Z,90.60
2018-06-15T03:52:12.909Z,90.50
2018-06-15T03:54:42.149Z,90.50
2018-06-15T03:57:11.162Z,90.20
2018-06-15T03:59:40.162Z,89.80
2018-06-15T04:02:09.225Z,90.70
2018-06-15T04:04:38.253Z,90.70
2018-06-15T04:07:07.331Z,90.30
2018-06-15T04:09:36.954Z,90.50
2018-06-15T04:12:06.128Z,90.20
2018-06-15T04:14:35.131Z,90.10
2018-06-15T04:17:04.157Z,89.70
2018-06-15T04:19:33.184Z,89.80
2018-06-15T04:22:02.391Z,90.00
2018-06-15T04:24:31.383Z,90.10
2018-06-15T04:27:00.408Z,90.00
2018-06-15T04:29:29.436Z,89.30
2018-06-15T04:31:58.469Z,89.10
2018-06-15T04:34:27.461Z,89.40
2018-06-15T04:36:56.584Z,89.10
2018-06-15T04:39:25.568Z,89.00
2018-06-15T04:41:54.597Z,89.70
2018-06-15T04:44:23.856Z,89.50
2018-06-15T04:46:52.900Z,89.70
2018-06-15T04:49:21.895Z,88.90
2018-06-15T04:51:50.921Z,88.40
2018-06-15T04:54:19.911Z,88.00
2018-06-15T04:56:49.148Z,88.70
2018-06-15T04:59:18.140Z,87.60
2018-06-15T05:01:47.137Z,87.60
2018-06-15T05:04:16.160Z,87.30
2018-06-15T05:06:45.149Z,86.10
2018-06-15T05:09:14.258Z,86.30
2018-06-15T05:11:43.209Z,86.10
2018-06-15T05:14:12.228Z,85.80
2018-06-15T05:16:41.220Z,86.10
2018-06-15T05:19:10.305Z,85.40
2018-06-15T05:21:39.653Z,84.60
2018-06-15T05:24:08.710Z,84.50
2018-06-15T05:26:37.785Z,84.30
2018-06-15T05:29:06.853Z,84.80
2018-06-15T05:34:04.693Z,85.30
2018-06-15T05:36:33.724Z,84.40
2018-06-15T05:39:02.855Z,84.20
2018-06-15T05:41:31.876Z,82.80
2018-06-15T05:44:00.856Z,83.70
2018-06-15T05:46:29.890Z,82.80
2018-06-15T05:48:58.876Z,82.50
2018-06-15T05:51:27.877Z,81.60
2018-06-15T05:53:56.896Z,84.30
2018-06-15T05:56:25.937Z,81.80
2018-06-15T05:58:54.969Z,82.50
2018-06-15T06:01:23.992Z,81.70
2018-06-15T06:03:53.503Z,81.40
2018-06-15T06:06:22.766Z,80.60
2018-06-15T06:08:51.780Z,80.90
2018-06-15T06:11:21.041Z,81.40
2018-06-15T06:13:50.026Z,80.80
2018-06-15T06:16:19.009Z,80.90
2018-06-15T06:18:48.028Z,80.30
2018-06-15T06:21:17.008Z,81.10
2018-06-15T06:23:46.076Z,80.30
2018-06-15T06:26:15.101Z,79.10
2018-06-15T06:28:44.077Z,78.20
2018-06-15T06:31:13.090Z,79.00
2018-06-15T06:33:42.073Z,79.70
2018-06-15T06:36:11.054Z,78.80
2018-06-15T06:38:40.080Z,79.30
2018-06-15T06:41:09.096Z,79.80
2018-06-15T06:43:38.291Z,78.40
2018-06-15T06:46:07.335Z,77.80
2018-06-15T06:48:36.475Z,79.20
2018-06-15T06:51:05.517Z,77.70
2018-06-15T06:53:34.500Z,79.10
2018-06-15T06:56:03.516Z,79.40
2018-06-15T06:58:32.851Z,78.20
2018-06-15T07:01:01.825Z,77.30
2018-06-15T07:03:30.840Z,77.70
2018-06-15T07:05:59.852Z,77.60
2018-06-15T07:08:28.830Z,77.90
2018-06-15T07:10:57.852Z,77.50
2018-06-15T07:13:26.841Z,76.50
2018-06-15T07:15:55.862Z,78.20
2018-06-15T07:18:24.852Z,77.60
2018-06-15T07:20:53.985Z,78.10
2018-06-15T07:23:22.986Z,76.30
2018-06-15T07:25:52.010Z,76.20
2018-06-15T07:28:21.013Z,77.50
2018-06-15T07:30:50.156Z,74.80
2018-06-15T07:33:19.140Z,73.40
2018-06-15T07:35:48.127Z,74.20
2018-06-15T07:38:17.149Z,75.70
2018-06-15T07:40:46.185Z,73.20
2018-06-15T07:43:15.208Z,73.20
2018-06-15T07:45:44.220Z,72.60
2018-06-15T07:48:13.623Z,72.50
2018-06-15T07:50:42.609Z,73.40
2018-06-15T07:53:11.585Z,72.70
2018-06-15T07:58:09.532Z,71.80
2018-06-15T08:00:38.592Z,73.20
2018-06-15T08:03:07.654Z,74.40
2018-06-15T08:05:36.645Z,73.50
2018-06-15T08:08:05.709Z,72.90
2018-06-15T08:10:34.724Z,74.60
2018-06-15T08:13:03.709Z,73.40
2018-06-15T08:15:33.328Z,73.50
2018-06-15T08:18:02.344Z,74.10
2018-06-15T08:20:31.329Z,72.70
2018-06-15T08:23:00.345Z,75.00
2018-06-15T08:25:29.326Z,74.60
2018-06-15T08:27:58.309Z,74.50
2018-06-15T08:30:27.329Z,74.30
2018-06-15T08:32:56.325Z,73.60
2018-06-15T08:35:25.362Z,72.60
2018-06-15T08:37:54.361Z,71.30
2018-06-15T08:40:23.357Z,71.60
2018-06-15T08:42:52.403Z,72.10
2018-06-15T08:45:21.385Z,72.50
2018-06-15T08:47:50.408Z,74.00
2018-06-15T08:50:19.393Z,72.50
2018-06-15T08:52:48.431Z,73.80
2018-06-15T08:55:17.417Z,72.80
2018-06-15T08:57:46.413Z,72.10
2018-06-15T09:00:15.753Z,70.80
2018-06-15T09:02:44.764Z,70.80
2018-06-15T09:05:13.753Z,70.00
2018-06-15T09:07:42.768Z,69.70
2018-06-15T09:10:11.757Z,70.50
2018-06-15T09:12:40.904Z,70.10
2018-06-15T09:15:09.941Z,71.40
2018-06-15T09:17:38.948Z,71.00
2018-06-15T09:20:08.138Z,70.80
2018-06-15T09:22:37.147Z,72.30
2018-06-15T09:25:06.414Z,70.40
2018-06-15T09:27:35.397Z,71.30
2018-06-15T09:30:04.597Z,71.70
2018-06-15T09:32:34.066Z,72.70
2018-06-15T09:35:03.032Z,72.10
2018-06-15T09:37:32.055Z,71.50
2018-06-15T09:40:01.045Z,71.10
2018-06-15T09:42:30.325Z,71.10
2018-06-15T09:44:59.336Z,71.00
2018-06-15T09:47:28.353Z,70.90
2018-06-15T09:49:57.382Z,68.90
2018-06-15T09:52:26.422Z,69.80
2018-06-15T09:57:24.085Z,70.50
2018-06-15T09:59:53.097Z,69.00
2018-06-15T10:02:22.120Z,70.70
2018-06-15T10:04:51.114Z,69.90
2018-06-15T10:07:20.092Z,69.80
2018-06-15T10:09:49.125Z,69.20
2018-06-15T10:12:18.146Z,70.00
2018-06-15T10:14:47.153Z,68.70
2018-06-15T10:17:16.181Z,68.80
2018-06-15T10:19:45.165Z,69.60
2018-06-15T10:22:14.141Z,69.60
2018-06-15T10:24:43.164Z,70.20
2018-06-15T10:27:12.170Z,71.20
2018-06-15T10:29:41.160Z,71.40
2018-06-15T10:32:10.184Z,69.70
2018-06-15T10:34:39.219Z,70.70
2018-06-15T10:37:08.221Z,70.20
2018-06-15T10:39:37.344Z,70.50
2018-06-15T10:42:06.761Z,69.50
2018-06-15T10:44:35.864Z,68.40
2018-06-15T10:47:04.874Z,68.10
2018-06-15T10:49:33.860Z,67.30
2018-06-15T10:52:02.880Z,67.70
2018-06-15T10:54:31.861Z,66.80
2018-06-15T10:57:00.892Z,65.50
2018-06-15T10:59:30.016Z,65.80
2018-06-15T11:01:59.002Z,64.80
2018-06-15T11:04:28.073Z,66.40
2018-06-15T11:06:57.056Z,65.70
2018-06-15T11:09:26.090Z,66.10
2018-06-15T11:11:55.100Z,65.50
2018-06-15T11:14:24.149Z,64.60
2018-06-15T11:19:21.913Z,66.00
2018-06-15T11:21:50.908Z,67.00
2018-06-15T11:24:20.163Z,68.60
2018-06-15T11:26:49.190Z,68.90
2018-06-15T11:29:18.177Z,69.00
2018-06-15T11:31:47.188Z,69.50
2018-06-15T11:34:16.212Z,70.90
2018-06-15T11:36:45.236Z,70.30
2018-06-15T11:39:14.261Z,71.70
2018-06-15T11:41:43.397Z,73.50
2018-06-15T11:44:12.413Z,73.80
2018-06-15T11:46:41.400Z,73.90
2018-06-15T11:49:10.442Z,73.90
2018-06-15T11:51:39.484Z,73.70
2018-06-15T11:54:08.586Z,74.30
2018-06-15T11:56:37.632Z,73.70
2018-06-15T11:59:07.064Z,73.40
2018-06-15T12:01:36.056Z,73.20
2018-06-15T12:04:05.849Z,72.40
2018-06-15T12:06:34.883Z,73.10
2018-06-15T12:09:05.513Z,73.60
2018-06-15T12:11:35.584Z,72.30
2018-06-15T12:14:04.601Z,73.10
2018-06-15T12:16:33.753Z,71.90
2018-06-15T12:19:02.731Z,72.80
2018-06-15T12:21:31.708Z,71.80
2018-06-15T12:24:00.729Z,69.80
2018-06-15T12:26:29.704Z,68.90
2018-06-15T12:28:58.729Z,68.20
2018-06-15T12:31:28.002Z,68.30
2018-06-15T12:33:56.981Z,68.90
2018-06-15T12:36:26.312Z,66.70
2018-06-15T12:38:55.461Z,67.40
2018-06-15T12:41:24.485Z,67.50
2018-06-15T12:43:53.521Z,67.90
2018-06-15T12:46:22.521Z,67.00
2018-06-15T12:48:51.564Z,66.40
2018-06-15T12:51:20.644Z,67.30
2018-06-15T12:53:49.592Z,66.40
2018-06-15T12:56:18.612Z,67.10
2018-06-15T12:58:47.592Z,65.20
2018-06-15T13:01:16.644Z,66.40
2018-06-15T13:03:45.675Z,66.10
2018-06-15T13:06:14.657Z,67.10
2018-06-15T13:08:43.636Z,66.70
2018-06-15T13:11:12.656Z,66.50
2018-06-15T13:13:41.635Z,66.80
2018-06-15T13:16:10.661Z,67.00
2018-06-15T13:18:39.656Z,67.10
2018-06-15T13:21:08.731Z,67.80
2018-06-15T13:23:38.291Z,69.30
2018-06-15T13:26:07.550Z,68.00
2018-06-15T13:28:36.572Z,68.10
2018-06-15T13:31:05.993Z,69.00
2018-06-15T13:33:35.168Z,68.70
2018-06-15T13:36:04.548Z,68.90
2018-06-15T13:38:33.996Z,69.70
2018-06-15T13:41:03.082Z,67.10
2018-06-15T13:43:32.711Z,67.40
2018-06-15T13:46:01.756Z,68.60
2018-06-15T13:48:30.773Z,65.80
2018-06-15T13:50:59.800Z,67.60
2018-06-15T13:53:28.876Z,68.20
2018-06-15T13:55:58.308Z,69.50
2018-06-15T13:58:27.608Z,70.30
2018-06-15T14:00:56.692Z,69.70
2018-06-15T14:03:25.811Z,70.80
2018-06-15T14:05:55.507Z,70.90
2018-06-15T14:08:24.549Z,71.10
2018-06-15T14:10:53.733Z,70.40
2018-06-15T14:13:23.033Z,70.70
2018-06-15T14:15:52.257Z,71.30
2018-06-15T14:18:21.343Z,70.30
2018-06-15T14:20:50.452Z,71.00
2018-06-15T14:23:19.526Z,69.40
2018-06-15T14:25:48.649Z,68.30
2018-06-15T14:28:17.860Z,66.80
2018-06-15T14:30:47.301Z,68.00
2018-06-15T14:33:16.312Z,66.20
2018-06-15T14:35:45.491Z,65.10
2018-06-15T14:38:14.681Z,64.40
2018-06-15T14:40:44.413Z,65.20
2018-06-15T14:43:13.584Z,64.90
2018-06-15T14:48:12.042Z,66.50
2018-06-15T14:53:10.039Z,65.80
2018-06-15T14:55:39.157Z,65.20
2018-06-15T14:58:08.261Z,66.80
2018-06-15T15:00:37.561Z,66.10
2018-06-15T15:03:06.840Z,66.50
2018-06-15T15:05:36.721Z,66.60
2018-06-15T15:08:05.960Z,65.60
2018-06-15T15:10:34.917Z,65.40
2018-06-15T15:13:03.944Z,65.30
2018-06-15T15:15:32.968Z,66.20
2018-06-15T15:18:02.294Z,66.40
2018-06-15T15:20:31.328Z,65.20
2018-06-15T15:23:00.509Z,67.10
2018-06-15T15:25:29.507Z,67.80
2018-06-15T15:27:58.517Z,68.00
2018-06-15T15:30:27.961Z,65.10
2018-06-15T15:32:57.220Z,66.60
2018-06-15T15:35:26.245Z,66.40
2018-06-15T15:40:23.961Z,67.00
2018-06-15T15:42:53.028Z,67.50
2018-06-15T15:45:22.076Z,68.40
2018-06-15T15:47:51.369Z,67.40
2018-06-15T15:50:20.507Z,67.60
2018-06-15T15:52:49.729Z,67.20
2018-06-15T15:55:18.796Z,66.60
2018-06-15T15:57:47.843Z,67.00
2018-06-15T16:00:16.851Z,67.00
2018-06-15T16:02:45.868Z,67.00
2018-06-15T16:05:14.943Z,67.60
2018-06-15T16:07:43.985Z,68.70
2018-06-15T16:10:13.055Z,68.20
2018-06-15T16:12:42.101Z,67.10
2018-06-15T16:15:11.128Z,67.10
2018-06-15T16:17:40.182Z,67.90
2018-06-15T16:20:09.246Z,68.50
2018-06-15T16:22:38.314Z,66.60
2018-06-15T16:25:07.457Z,67.50
2018-06-15T16:27:39.098Z,67.60
2018-06-15T16:30:08.216Z,67.50
2018-06-15T16:32:37.451Z,67.60
2018-06-15T16:35:06.757Z,69.10
2018-06-15T16:37:35.894Z,68.90
2018-06-15T16:40:05.156Z,69.60
2018-06-15T16:42:34.352Z,69.20
2018-06-15T16:45:03.451Z,69.20
2018-06-15T16:47:39.248Z,69.40
2018-06-15T16:50:08.442Z,68.60
2018-06-15T16:52:37.516Z,69.20
2018-06-15T16:55:07.264Z,70.20
2018-06-15T16:57:36.373Z,71.20
2018-06-15T17:00:05.666Z,70.70
2018-06-15T17:02:35.072Z,71.30
2018-06-15T17:05:04.090Z,72.70
2018-06-15T17:07:33.165Z,74.10
2018-06-15T17:10:02.436Z,74.10
2018-06-15T17:12:31.739Z,74.40
2018-06-15T17:15:00.745Z,74.50
2018-06-15T17:17:29.790Z,74.60
2018-06-15T17:19:58.784Z,75.10
2018-06-15T17:22:27.980Z,74.40
2018-06-15T17:24:57.187Z,74.10
2018-06-15T17:27:26.499Z,75.30
2018-06-15T17:29:56.335Z,74.60
2018-06-15T17:32:25.704Z,77.60
2018-06-15T17:34:56.017Z,77.10
2018-06-15T17:37:25.112Z,77.10
2018-06-15T17:39:54.108Z,77.60
2018-06-15T17:42:23.322Z,77.60
2018-06-15T17:44:52.701Z,79.50
2018-06-15T17:47:21.712Z,79.40
2018-06-15T17:49:50.794Z,79.80
2018-06-15T17:52:19.889Z,78.60
2018-06-15T17:54:48.952Z,79.20
2018-06-15T17:57:18.295Z,80.40
2018-06-15T17:59:47.318Z,81.50
2018-06-15T18:02:16.313Z,81.90
2018-06-15T18:04:45.362Z,81.10
2018-06-15T18:07:14.372Z,80.70
2018-06-15T18:09:43.416Z,79.70
2018-06-15T18:12:12.444Z,80.50
2018-06-15T18:14:41.815Z,80.80
2018-06-15T18:17:10.808Z,83.30
2018-06-15T18:19:39.836Z,85.10
2018-06-15T18:22:09.009Z,84.40
2018-06-15T18:24:38.124Z,85.00
2018-06-15T18:27:07.307Z,84.50
2018-06-15T18:29:36.489Z,84.00
2018-06-15T18:32:05.555Z,81.30
2018-06-15T18:34:34.885Z,81.10
2018-06-15T18:37:03.972Z,84.10
2018-06-15T18:39:33.012Z,84.90
2018-06-15T18:42:01.997Z,85.80
2018-06-15T18:44:31.021Z,86.20
2018-06-15T18:47:00.557Z,86.90
2018-06-15T18:49:29.653Z,87.80
2018-06-15T18:51:58.743Z,87.00
2018-06-15T18:54:27.856Z,84.80
2018-06-15T18:56:56.856Z,83.40
2018-06-15T18:59:25.877Z,81.90
2018-06-15T19:01:55.012Z,83.00
2018-06-15T19:04:24.097Z,84.50
2018-06-15T19:06:53.904Z,85.70
2018-06-15T19:09:25.168Z,86.00
2018-06-15T19:11:54.489Z,87.50
2018-06-15T19:14:23.540Z,89.40
2018-06-15T19:16:52.561Z,90.00
2018-06-15T19:19:21.855Z,90.60
2018-06-15T19:21:50.911Z,91.00
2018-06-15T19:24:19.903Z,91.00
2018-06-15T19:26:49.101Z,91.00
2018-06-15T19:29:18.067Z,91.10
2018-06-15T19:31:47.096Z,90.60
2018-06-15T19:34:16.175Z,90.70
2018-06-15T19:36:45.837Z,90.70
2018-06-15T19:39:14.944Z,91.10
2018-06-15T19:41:44.087Z,90.90
2018-06-15T19:44:13.824Z,91.10
2018-06-15T19:49:11.771Z,92.20
2018-06-15T19:51:42.392Z,92.00
2018-06-15T19:54:11.797Z,92.40
2018-06-15T19:56:41.104Z,92.00
2018-06-15T19:59:13.275Z,91.90
2018-06-15T20:01:42.412Z,91.80
2018-06-15T20:04:11.504Z,92.20
2018-06-15T20:09:09.569Z,92.50
2018-06-15T20:11:38.924Z,92.60
2018-06-15T20:14:11.831Z,92.20
2018-06-15T20:16:44.685Z,91.50
2018-06-15T20:19:14.452Z,91.30
2018-06-15T20:21:43.646Z,92.10
2018-06-15T20:24:13.668Z,92.20
2018-06-15T20:26:42.765Z,92.80
2018-06-15T20:29:11.816Z,93.60
2018-06-15T20:31:41.056Z,93.10
2018-06-15T20:34:10.053Z,92.20
2018-06-15T20:36:39.336Z,91.90
2018-06-15T20:39:09.859Z,92.00
2018-06-15T20:41:39.027Z,92.90
2018-06-15T20:44:08.191Z,93.30
2018-06-15T20:46:37.346Z,93.70
2018-06-15T20:49:06.549Z,93.70
2018-06-15T20:51:36.389Z,93.50
2018-06-15T20:54:07.841Z,93.40
2018-06-15T20:56:38.144Z,94.00
2018-06-15T20:59:08.557Z,93.90
2018-06-15T21:01:37.611Z,94.10
2018-06-15T21:04:06.649Z,94.30
2018-06-15T21:06:35.692Z,94.40
2018-06-15T21:09:07.570Z,94.30
2018-06-15T21:11:36.682Z,93.90
2018-06-15T21:14:05.777Z,93.00
2018-06-15T21:16:35.128Z,93.30
2018-06-15T21:19:04.432Z,93.50
2018-06-15T21:21:33.513Z,93.80
2018-06-15T21:24:02.578Z,94.20
2018-06-15T21:26:31.690Z,93.90
2018-06-15T21:29:00.752Z,94.60
2018-06-15T21:31:29.828Z,94.90
2018-06-15T21:33:58.929Z,95.30
2018-06-15T21:36:29.762Z,95.10
2018-06-15T21:38:59.537Z,95.00
2018-06-15T21:41:29.473Z,95.10
2018-06-15T21:43:58.774Z,95.80
2018-06-15T21:46:27.966Z,95.60
2018-06-15T21:48:57.120Z,96.10
2018-06-15T21:51:26.117Z,96.00
2018-06-15T21:53:55.237Z,96.30
2018-06-15T21:56:24.627Z,96.00
2018-06-15T21:58:53.931Z,95.50
2018-06-15T22:01:26.728Z,95.40
2018-06-15T22:03:56.247Z,95.70
2018-06-15T22:06:25.286Z,95.80
2018-06-15T22:08:54.417Z,96.20
2018-06-15T22:11:23.556Z,96.20
2018-06-15T22:13:53.205Z,96.00
2018-06-15T22:16:22.257Z,96.00
2018-06-15T22:18:51.688Z,95.90
2018-06-15T22:21:20.701Z,96.40
2018-06-15T22:23:49.873Z,96.60
2018-06-15T22:26:18.932Z,96.70
2018-06-15T22:28:47.916Z,96.90
2018-06-15T22:31:17.011Z,97.10
2018-06-15T22:33:46.436Z,96.80
2018-06-15T22:36:15.468Z,96.70
2018-06-15T22:38:44.629Z,96.90
2018-06-15T22:41:13.840Z,96.50
2018-06-15T22:43:42.933Z,96.70
2018-06-15T22:46:12.192Z,96.90
2018-06-15T22:48:41.211Z,96.70
2018-06-15T22:51:10.212Z,96.50
2018-06-15T22:53:39.454Z,96.30
2018-06-15T22:56:08.559Z,95.90
2018-06-15T22:58:37.709Z,95.90
2018-06-15T23:01:06.907Z,96.40
2018-06-15T23:03:35.934Z,96.30
2018-06-15T23:06:05.143Z,95.60
2018-06-15T23:08:34.244Z,96.30
2018-06-15T23:11:03.357Z,95.30
2018-06-15T23:13:32.484Z,95.40
2018-06-15T23:16:01.754Z,95.30
2018-06-15T23:18:30.911Z,95.30
2018-06-15T23:21:00.104Z,95.60
2018-06-15T23:23:29.316Z,95.70
2018-06-15T23:25:58.453Z,96.20
2018-06-15T23:28:27.459Z,96.30
2018-06-15T23:30:56.700Z,96.10
2018-06-15T23:33:25.892Z,95.60
2018-06-15T23:35:55.058Z,95.40
2018-06-15T23:38:24.386Z,95.70
2018-06-15T23:40:53.384Z,95.40
2018-06-15T23:43:22.389Z,95.60
2018-06-15T23:45:51.526Z,95.60
2018-06-15T23:48:20.497Z,95.70
2018-06-15T23:50:49.680Z,96.20
2018-06-15T23:53:18.803Z,96.30
2018-06-15T23:55:47.834Z,96.30
2018-06-15T23:58:16.907Z,96.30
